sensor_id;sensor_type;location;lat;lon;timestamp;temperature;humidity
16287;DHT22;8251;53.568;10.018;2023-03-23T00:01:53;13.80;89.40
16287;DHT22;8251;53.568;10.018;2023-03-23T00:04:24;13.70;90.00
16287;DHT22;8251;53.568;10.018;2023-03-23T00:06:51;13.60;90.40
16287;DHT22;8251;53.568;10.018;2023-03-23T00:09:21;13.50;90.70
16287;DHT22;8251;53.568;10.018;2023-03-23T00:11:51;13.60;90.80
16287;DHT22;8251;53.568;10.018;2023-03-23T00:14:22;13.60;90.90
16287;DHT22;8251;53.568;10.018;2023-03-23T00:16:50;13.60;91.10
16287;DHT22;8251;53.568;10.018;2023-03-23T00:19:17;13.50;91.40
16287;DHT22;8251;53.568;10.018;2023-03-23T00:21:47;13.40;91.60
16287;DHT22;8251;53.568;10.018;2023-03-23T00:24:15;13.40;91.80
16287;DHT22;8251;53.568;10.018;2023-03-23T00:26:43;13.30;91.90
16287;DHT22;8251;53.568;10.018;2023-03-23T00:29:13;13.40;92.00
16287;DHT22;8251;53.568;10.018;2023-03-23T00:31:41;13.50;92.10
16287;DHT22;8251;53.568;10.018;2023-03-23T00:34:13;13.30;92.40
16287;DHT22;8251;53.568;10.018;2023-03-23T00:36:55;13.40;92.40
16287;DHT22;8251;53.568;10.018;2023-03-23T00:39:30;13.40;92.40
16287;DHT22;8251;53.568;10.018;2023-03-23T00:42:03;13.40;92.40
16287;DHT22;8251;53.568;10.018;2023-03-23T00:44:36;13.40;92.30
16287;DHT22;8251;53.568;10.018;2023-03-23T00:47:05;13.50;92.40
16287;DHT22;8251;53.568;10.018;2023-03-23T00:49:37;13.40;92.50
16287;DHT22;8251;53.568;10.018;2023-03-23T00:52:06;13.40;92.50
16287;DHT22;8251;53.568;10.018;2023-03-23T00:54:34;13.40;92.60
16287;DHT22;8251;53.568;10.018;2023-03-23T00:57:03;13.40;92.60
16287;DHT22;8251;53.568;10.018;2023-03-23T00:59:30;13.40;92.60
16287;DHT22;8251;53.568;10.018;2023-03-23T01:02:00;13.50;92.60
16287;DHT22;8251;53.568;10.018;2023-03-23T01:04:27;13.50;92.60
16287;DHT22;8251;53.568;10.018;2023-03-23T01:06:57;13.40;92.60
16287;DHT22;8251;53.568;10.018;2023-03-23T01:09:29;13.50;92.60
16287;DHT22;8251;53.568;10.018;2023-03-23T01:11:56;13.50;92.50
16287;DHT22;8251;53.568;10.018;2023-03-23T01:14:23;13.60;92.50
16287;DHT22;8251;53.568;10.018;2023-03-23T01:16:51;13.60;92.50
16287;DHT22;8251;53.568;10.018;2023-03-23T01:19:21;13.60;92.40
16287;DHT22;8251;53.568;10.018;2023-03-23T01:21:50;13.60;92.40
16287;DHT22;8251;53.568;10.018;2023-03-23T01:24:17;13.60;92.40
16287;DHT22;8251;53.568;10.018;2023-03-23T01:26:46;13.60;92.40
16287;DHT22;8251;53.568;10.018;2023-03-23T01:29:13;13.60;92.40
16287;DHT22;8251;53.568;10.018;2023-03-23T01:31:40;13.60;92.40
16287;DHT22;8251;53.568;10.018;2023-03-23T01:34:08;13.60;92.40
16287;DHT22;8251;53.568;10.018;2023-03-23T01:36:39;13.60;92.40
16287;DHT22;8251;53.568;10.018;2023-03-23T01:39:06;13.60;92.40
16287;DHT22;8251;53.568;10.018;2023-03-23T01:41:34;13.70;92.30
16287;DHT22;8251;53.568;10.018;2023-03-23T01:44:05;13.60;92.30
16287;DHT22;8251;53.568;10.018;2023-03-23T01:46:34;13.60;92.50
16287;DHT22;8251;53.568;10.018;2023-03-23T01:49:08;13.60;92.50
16287;DHT22;8251;53.568;10.018;2023-03-23T01:51:40;13.60;92.60
16287;DHT22;8251;53.568;10.018;2023-03-23T01:54:12;13.60;92.60
16287;DHT22;8251;53.568;10.018;2023-03-23T01:56:48;13.60;92.70
16287;DHT22;8251;53.568;10.018;2023-03-23T01:59:16;13.50;92.70
16287;DHT22;8251;53.568;10.018;2023-03-23T02:01:43;13.60;92.70
16287;DHT22;8251;53.568;10.018;2023-03-23T02:04:12;13.60;92.70
16287;DHT22;8251;53.568;10.018;2023-03-23T02:06:40;13.50;92.80
16287;DHT22;8251;53.568;10.018;2023-03-23T02:09:11;13.50;92.90
16287;DHT22;8251;53.568;10.018;2023-03-23T02:11:42;13.50;93.00
16287;DHT22;8251;53.568;10.018;2023-03-23T02:14:10;13.50;93.10
16287;DHT22;8251;53.568;10.018;2023-03-23T02:16:43;13.50;93.10
16287;DHT22;8251;53.568;10.018;2023-03-23T02:22:43;13.50;93.20
16287;DHT22;8251;53.568;10.018;2023-03-23T02:25:33;13.50;93.20
16287;DHT22;8251;53.568;10.018;2023-03-23T02:28:47;13.50;93.20
16287;DHT22;8251;53.568;10.018;2023-03-23T02:31:37;13.40;93.40
16287;DHT22;8251;53.568;10.018;2023-03-23T02:34:15;13.30;93.50
16287;DHT22;8251;53.568;10.018;2023-03-23T02:36:46;13.30;93.70
16287;DHT22;8251;53.568;10.018;2023-03-23T02:39:21;13.30;93.70
16287;DHT22;8251;53.568;10.018;2023-03-23T02:41:56;13.40;93.80
16287;DHT22;8251;53.568;10.018;2023-03-23T02:44:26;13.30;93.70
16287;DHT22;8251;53.568;10.018;2023-03-23T02:46:56;13.30;93.70
16287;DHT22;8251;53.568;10.018;2023-03-23T02:49:28;13.30;93.80
16287;DHT22;8251;53.568;10.018;2023-03-23T02:52:02;13.40;93.60
16287;DHT22;8251;53.568;10.018;2023-03-23T02:54:31;13.40;93.70
16287;DHT22;8251;53.568;10.018;2023-03-23T02:56:58;13.30;93.80
16287;DHT22;8251;53.568;10.018;2023-03-23T02:59:26;13.30;93.90
16287;DHT22;8251;53.568;10.018;2023-03-23T03:02:05;13.30;93.90
16287;DHT22;8251;53.568;10.018;2023-03-23T03:04:39;13.40;93.90
16287;DHT22;8251;53.568;10.018;2023-03-23T03:07:30;13.40;93.70
16287;DHT22;8251;53.568;10.018;2023-03-23T03:10:03;13.40;93.80
16287;DHT22;8251;53.568;10.018;2023-03-23T03:12:39;13.30;93.90
16287;DHT22;8251;53.568;10.018;2023-03-23T03:15:18;13.40;93.80
16287;DHT22;8251;53.568;10.018;2023-03-23T03:17:53;13.40;93.80
16287;DHT22;8251;53.568;10.018;2023-03-23T03:20:26;13.40;93.70
16287;DHT22;8251;53.568;10.018;2023-03-23T03:22:55;13.40;93.80
16287;DHT22;8251;53.568;10.018;2023-03-23T03:25:26;13.40;93.80
16287;DHT22;8251;53.568;10.018;2023-03-23T03:27:55;13.40;93.80
16287;DHT22;8251;53.568;10.018;2023-03-23T03:30:26;13.50;93.70
16287;DHT22;8251;53.568;10.018;2023-03-23T03:32:56;13.50;93.60
16287;DHT22;8251;53.568;10.018;2023-03-23T03:35:27;13.60;93.50
16287;DHT22;8251;53.568;10.018;2023-03-23T03:37:54;13.70;93.60
16287;DHT22;8251;53.568;10.018;2023-03-23T03:40:22;13.60;93.40
16287;DHT22;8251;53.568;10.018;2023-03-23T03:42:50;13.60;93.20
16287;DHT22;8251;53.568;10.018;2023-03-23T03:45:19;13.60;93.10
16287;DHT22;8251;53.568;10.018;2023-03-23T03:47:48;13.60;93.20
16287;DHT22;8251;53.568;10.018;2023-03-23T03:50:16;13.60;93.20
16287;DHT22;8251;53.568;10.018;2023-03-23T03:52:44;13.70;93.10
16287;DHT22;8251;53.568;10.018;2023-03-23T03:55:11;13.70;93.10
16287;DHT22;8251;53.568;10.018;2023-03-23T03:57:38;13.70;93.00
16287;DHT22;8251;53.568;10.018;2023-03-23T04:00:10;13.70;92.80
16287;DHT22;8251;53.568;10.018;2023-03-23T04:02:41;13.70;92.90
16287;DHT22;8251;53.568;10.018;2023-03-23T04:05:09;13.70;92.80
16287;DHT22;8251;53.568;10.018;2023-03-23T04:07:42;13.60;93.00
16287;DHT22;8251;53.568;10.018;2023-03-23T04:10:11;13.50;93.00
16287;DHT22;8251;53.568;10.018;2023-03-23T04:12:38;13.50;93.10
16287;DHT22;8251;53.568;10.018;2023-03-23T04:15:07;13.50;93.10
16287;DHT22;8251;53.568;10.018;2023-03-23T04:17:34;13.50;93.10
16287;DHT22;8251;53.568;10.018;2023-03-23T04:20:01;13.40;93.10
16287;DHT22;8251;53.568;10.018;2023-03-23T04:22:32;13.40;93.30
16287;DHT22;8251;53.568;10.018;2023-03-23T04:25:03;13.50;93.20
16287;DHT22;8251;53.568;10.018;2023-03-23T04:27:33;13.50;93.10
16287;DHT22;8251;53.568;10.018;2023-03-23T04:30:01;13.40;93.10
16287;DHT22;8251;53.568;10.018;2023-03-23T04:32:29;13.50;93.10
16287;DHT22;8251;53.568;10.018;2023-03-23T04:34:59;13.50;93.10
16287;DHT22;8251;53.568;10.018;2023-03-23T04:37:27;13.60;92.80
16287;DHT22;8251;53.568;10.018;2023-03-23T04:39:57;13.60;92.80
16287;DHT22;8251;53.568;10.018;2023-03-23T04:42:28;13.70;93.10
16287;DHT22;8251;53.568;10.018;2023-03-23T04:44:57;13.70;92.70
16287;DHT22;8251;53.568;10.018;2023-03-23T04:47:27;13.70;92.60
16287;DHT22;8251;53.568;10.018;2023-03-23T04:49:55;13.70;92.60
16287;DHT22;8251;53.568;10.018;2023-03-23T04:52:22;13.70;92.50
16287;DHT22;8251;53.568;10.018;2023-03-23T04:54:51;13.80;92.40
16287;DHT22;8251;53.568;10.018;2023-03-23T04:57:18;13.70;92.20
16287;DHT22;8251;53.568;10.018;2023-03-23T04:59:45;13.70;92.20
16287;DHT22;8251;53.568;10.018;2023-03-23T05:02:14;13.70;92.10
16287;DHT22;8251;53.568;10.018;2023-03-23T05:04:42;13.70;92.10
16287;DHT22;8251;53.568;10.018;2023-03-23T05:07:11;13.60;92.00
16287;DHT22;8251;53.568;10.018;2023-03-23T05:09:38;13.70;92.10
16287;DHT22;8251;53.568;10.018;2023-03-23T05:12:06;13.60;92.10
16287;DHT22;8251;53.568;10.018;2023-03-23T05:14:40;13.50;92.20
16287;DHT22;8251;53.568;10.018;2023-03-23T05:17:07;13.60;92.20
16287;DHT22;8251;53.568;10.018;2023-03-23T05:19:36;13.60;92.10
16287;DHT22;8251;53.568;10.018;2023-03-23T05:22:03;13.60;92.20
16287;DHT22;8251;53.568;10.018;2023-03-23T05:24:30;13.50;92.40
16287;DHT22;8251;53.568;10.018;2023-03-23T05:26:58;13.50;92.50
16287;DHT22;8251;53.568;10.018;2023-03-23T05:29:27;13.50;92.60
16287;DHT22;8251;53.568;10.018;2023-03-23T05:31:56;13.50;92.50
16287;DHT22;8251;53.568;10.018;2023-03-23T05:34:25;13.50;92.50
16287;DHT22;8251;53.568;10.018;2023-03-23T05:36:53;13.50;92.50
16287;DHT22;8251;53.568;10.018;2023-03-23T05:39:21;13.50;92.50
16287;DHT22;8251;53.568;10.018;2023-03-23T05:41:50;13.50;92.50
16287;DHT22;8251;53.568;10.018;2023-03-23T05:44:18;13.50;92.50
16287;DHT22;8251;53.568;10.018;2023-03-23T05:46:45;13.60;92.50
16287;DHT22;8251;53.568;10.018;2023-03-23T05:49:12;13.60;92.40
16287;DHT22;8251;53.568;10.018;2023-03-23T05:51:41;13.60;92.40
16287;DHT22;8251;53.568;10.018;2023-03-23T05:54:15;13.60;92.50
16287;DHT22;8251;53.568;10.018;2023-03-23T05:56:43;13.60;92.40
16287;DHT22;8251;53.568;10.018;2023-03-23T05:59:12;13.70;92.30
16287;DHT22;8251;53.568;10.018;2023-03-23T06:01:42;13.60;92.20
16287;DHT22;8251;53.568;10.018;2023-03-23T06:04:09;13.60;92.20
16287;DHT22;8251;53.568;10.018;2023-03-23T06:06:37;13.60;92.10
16287;DHT22;8251;53.568;10.018;2023-03-23T06:09:07;13.70;92.10
16287;DHT22;8251;53.568;10.018;2023-03-23T06:11:37;13.70;91.90
16287;DHT22;8251;53.568;10.018;2023-03-23T06:14:09;13.70;91.80
16287;DHT22;8251;53.568;10.018;2023-03-23T06:16:37;13.70;91.80
16287;DHT22;8251;53.568;10.018;2023-03-23T06:19:04;13.70;91.80
16287;DHT22;8251;53.568;10.018;2023-03-23T06:21:31;13.80;91.60
16287;DHT22;8251;53.568;10.018;2023-03-23T06:23:58;13.80;91.60
16287;DHT22;8251;53.568;10.018;2023-03-23T06:26:30;13.90;91.50
16287;DHT22;8251;53.568;10.018;2023-03-23T06:28:59;13.90;91.40
16287;DHT22;8251;53.568;10.018;2023-03-23T06:31:27;14.00;91.30
16287;DHT22;8251;53.568;10.018;2023-03-23T06:33:57;14.00;91.20
16287;DHT22;8251;53.568;10.018;2023-03-23T06:36:24;14.00;91.20
16287;DHT22;8251;53.568;10.018;2023-03-23T06:38:52;13.90;91.20
16287;DHT22;8251;53.568;10.018;2023-03-23T06:41:21;13.90;91.20
16287;DHT22;8251;53.568;10.018;2023-03-23T06:43:50;14.00;91.30
16287;DHT22;8251;53.568;10.018;2023-03-23T06:46:19;14.00;91.10
16287;DHT22;8251;53.568;10.018;2023-03-23T06:48:46;14.00;91.40
16287;DHT22;8251;53.568;10.018;2023-03-23T06:51:15;14.10;91.00
16287;DHT22;8251;53.568;10.018;2023-03-23T06:53:42;14.10;90.90
16287;DHT22;8251;53.568;10.018;2023-03-23T06:56:09;14.10;90.80
16287;DHT22;8251;53.568;10.018;2023-03-23T06:58:37;14.10;90.90
16287;DHT22;8251;53.568;10.018;2023-03-23T07:01:05;14.10;90.80
16287;DHT22;8251;53.568;10.018;2023-03-23T07:03:35;14.10;90.70
16287;DHT22;8251;53.568;10.018;2023-03-23T07:06:02;14.20;90.50
16287;DHT22;8251;53.568;10.018;2023-03-23T07:08:29;14.10;90.50
16287;DHT22;8251;53.568;10.018;2023-03-23T07:10:57;14.20;90.50
16287;DHT22;8251;53.568;10.018;2023-03-23T07:13:27;14.20;90.10
16287;DHT22;8251;53.568;10.018;2023-03-23T07:15:54;14.40;90.10
16287;DHT22;8251;53.568;10.018;2023-03-23T07:18:21;14.60;89.40
16287;DHT22;8251;53.568;10.018;2023-03-23T07:20:50;14.70;88.90
16287;DHT22;8251;53.568;10.018;2023-03-23T07:23:18;14.80;88.20
16287;DHT22;8251;53.568;10.018;2023-03-23T07:25:46;14.90;88.20
16287;DHT22;8251;53.568;10.018;2023-03-23T07:28:14;15.00;86.70
16287;DHT22;8251;53.568;10.018;2023-03-23T07:30:41;14.90;87.00
16287;DHT22;8251;53.568;10.018;2023-03-23T07:33:08;14.80;87.20
16287;DHT22;8251;53.568;10.018;2023-03-23T07:35:37;14.70;87.60
16287;DHT22;8251;53.568;10.018;2023-03-23T07:38:05;14.60;87.90
16287;DHT22;8251;53.568;10.018;2023-03-23T07:40:33;14.60;88.40
16287;DHT22;8251;53.568;10.018;2023-03-23T07:43:02;14.60;88.40
16287;DHT22;8251;53.568;10.018;2023-03-23T07:45:30;14.70;88.40
16287;DHT22;8251;53.568;10.018;2023-03-23T07:48:00;14.80;88.20
16287;DHT22;8251;53.568;10.018;2023-03-23T07:50:27;14.70;87.80
16287;DHT22;8251;53.568;10.018;2023-03-23T07:52:55;14.80;87.60
16287;DHT22;8251;53.568;10.018;2023-03-23T07:55:25;14.60;88.30
16287;DHT22;8251;53.568;10.018;2023-03-23T07:57:55;14.50;88.80
16287;DHT22;8251;53.568;10.018;2023-03-23T08:00:27;14.50;89.20
16287;DHT22;8251;53.568;10.018;2023-03-23T08:02:58;14.50;89.50
16287;DHT22;8251;53.568;10.018;2023-03-23T08:05:26;14.60;89.70
16287;DHT22;8251;53.568;10.018;2023-03-23T08:07:54;14.70;89.20
16287;DHT22;8251;53.568;10.018;2023-03-23T08:10:22;14.60;89.50
16287;DHT22;8251;53.568;10.018;2023-03-23T08:12:53;14.50;90.00
16287;DHT22;8251;53.568;10.018;2023-03-23T08:15:22;14.30;90.60
16287;DHT22;8251;53.568;10.018;2023-03-23T08:17:50;14.20;90.80
16287;DHT22;8251;53.568;10.018;2023-03-23T08:20:21;14.30;91.00
16287;DHT22;8251;53.568;10.018;2023-03-23T08:22:54;14.30;90.90
16287;DHT22;8251;53.568;10.018;2023-03-23T08:25:23;14.30;90.60
16287;DHT22;8251;53.568;10.018;2023-03-23T08:27:53;14.10;90.80
16287;DHT22;8251;53.568;10.018;2023-03-23T08:30:26;14.10;91.20
16287;DHT22;8251;53.568;10.018;2023-03-23T08:32:54;14.00;91.40
16287;DHT22;8251;53.568;10.018;2023-03-23T08:35:21;13.90;92.10
16287;DHT22;8251;53.568;10.018;2023-03-23T08:37:51;13.80;92.30
16287;DHT22;8251;53.568;10.018;2023-03-23T08:40:22;13.80;92.30
16287;DHT22;8251;53.568;10.018;2023-03-23T08:42:51;13.90;92.30
16287;DHT22;8251;53.568;10.018;2023-03-23T08:45:22;14.00;92.10
16287;DHT22;8251;53.568;10.018;2023-03-23T08:47:50;13.90;90.50
16287;DHT22;8251;53.568;10.018;2023-03-23T08:50:22;13.80;90.40
16287;DHT22;8251;53.568;10.018;2023-03-23T08:52:50;13.80;90.50
16287;DHT22;8251;53.568;10.018;2023-03-23T08:55:18;14.10;90.90
16287;DHT22;8251;53.568;10.018;2023-03-23T08:57:45;14.80;90.80
16287;DHT22;8251;53.568;10.018;2023-03-23T09:00:22;15.10;88.80
16287;DHT22;8251;53.568;10.018;2023-03-23T09:02:53;15.20;87.90
16287;DHT22;8251;53.568;10.018;2023-03-23T09:05:23;15.20;88.50
16287;DHT22;8251;53.568;10.018;2023-03-23T09:07:55;15.20;87.60
16287;DHT22;8251;53.568;10.018;2023-03-23T09:10:25;15.20;87.90
16287;DHT22;8251;53.568;10.018;2023-03-23T09:12:53;15.10;88.00
16287;DHT22;8251;53.568;10.018;2023-03-23T09:15:22;15.20;87.70
16287;DHT22;8251;53.568;10.018;2023-03-23T09:17:51;15.10;86.60
16287;DHT22;8251;53.568;10.018;2023-03-23T09:20:21;14.90;86.30
16287;DHT22;8251;53.568;10.018;2023-03-23T09:22:49;14.80;85.50
16287;DHT22;8251;53.568;10.018;2023-03-23T09:25:19;14.70;86.30
16287;DHT22;8251;53.568;10.018;2023-03-23T09:27:52;14.70;86.60
16287;DHT22;8251;53.568;10.018;2023-03-23T09:30:24;14.80;86.30
16287;DHT22;8251;53.568;10.018;2023-03-23T09:32:52;14.80;85.60
16287;DHT22;8251;53.568;10.018;2023-03-23T09:35:20;14.80;85.70
16287;DHT22;8251;53.568;10.018;2023-03-23T09:37:52;14.80;84.70
16287;DHT22;8251;53.568;10.018;2023-03-23T09:40:21;14.70;84.70
16287;DHT22;8251;53.568;10.018;2023-03-23T09:42:59;14.60;84.90
16287;DHT22;8251;53.568;10.018;2023-03-23T09:45:36;14.60;85.30
16287;DHT22;8251;53.568;10.018;2023-03-23T09:48:28;14.60;85.50
16287;DHT22;8251;53.568;10.018;2023-03-23T09:51:01;14.70;85.70
16287;DHT22;8251;53.568;10.018;2023-03-23T09:53:34;14.80;86.00
16287;DHT22;8251;53.568;10.018;2023-03-23T09:56:13;14.90;84.70
16287;DHT22;8251;53.568;10.018;2023-03-23T09:58:54;14.90;84.50
16287;DHT22;8251;53.568;10.018;2023-03-23T10:01:26;14.90;84.10
16287;DHT22;8251;53.568;10.018;2023-03-23T10:04:03;15.30;83.50
16287;DHT22;8251;53.568;10.018;2023-03-23T10:06:33;15.60;82.90
16287;DHT22;8251;53.568;10.018;2023-03-23T10:09:03;15.60;81.90
16287;DHT22;8251;53.568;10.018;2023-03-23T10:11:39;15.70;81.50
16287;DHT22;8251;53.568;10.018;2023-03-23T10:14:37;15.70;80.90
16287;DHT22;8251;53.568;10.018;2023-03-23T10:17:14;15.50;80.80
16287;DHT22;8251;53.568;10.018;2023-03-23T10:19:49;15.60;81.20
16287;DHT22;8251;53.568;10.018;2023-03-23T10:22:22;15.70;81.30
16287;DHT22;8251;53.568;10.018;2023-03-23T10:25:15;15.90;80.10
16287;DHT22;8251;53.568;10.018;2023-03-23T10:27:49;16.10;80.40
16287;DHT22;8251;53.568;10.018;2023-03-23T10:30:24;16.50;80.50
16287;DHT22;8251;53.568;10.018;2023-03-23T10:32:59;16.70;77.60
16287;DHT22;8251;53.568;10.018;2023-03-23T10:35:31;16.80;78.00
16287;DHT22;8251;53.568;10.018;2023-03-23T10:38:01;16.80;77.20
16287;DHT22;8251;53.568;10.018;2023-03-23T10:40:30;16.80;77.40
16287;DHT22;8251;53.568;10.018;2023-03-23T10:42:58;16.80;76.60
16287;DHT22;8251;53.568;10.018;2023-03-23T10:45:29;16.80;77.00
16287;DHT22;8251;53.568;10.018;2023-03-23T10:48:13;16.70;77.00
16287;DHT22;8251;53.568;10.018;2023-03-23T10:50:42;16.60;76.70
16287;DHT22;8251;53.568;10.018;2023-03-23T10:53:15;16.40;77.70
16287;DHT22;8251;53.568;10.018;2023-03-23T10:55:43;16.30;77.80
16287;DHT22;8251;53.568;10.018;2023-03-23T10:58:12;16.20;78.50
16287;DHT22;8251;53.568;10.018;2023-03-23T11:00:47;16.10;78.60
16287;DHT22;8251;53.568;10.018;2023-03-23T11:03:40;16.00;77.90
16287;DHT22;8251;53.568;10.018;2023-03-23T11:06:17;16.00;77.70
16287;DHT22;8251;53.568;10.018;2023-03-23T11:08:50;15.90;76.00
16287;DHT22;8251;53.568;10.018;2023-03-23T11:11:19;16.00;76.20
16287;DHT22;8251;53.568;10.018;2023-03-23T11:13:48;16.00;77.50
16287;DHT22;8251;53.568;10.018;2023-03-23T11:16:24;15.90;78.20
16287;DHT22;8251;53.568;10.018;2023-03-23T11:18:55;15.80;79.00
16287;DHT22;8251;53.568;10.018;2023-03-23T11:21:25;16.00;80.00
16287;DHT22;8251;53.568;10.018;2023-03-23T11:23:55;16.00;80.00
16287;DHT22;8251;53.568;10.018;2023-03-23T11:26:26;16.00;79.00
16287;DHT22;8251;53.568;10.018;2023-03-23T11:28:56;15.90;79.30
16287;DHT22;8251;53.568;10.018;2023-03-23T11:31:30;15.80;80.10
16287;DHT22;8251;53.568;10.018;2023-03-23T11:34:02;15.80;80.40
16287;DHT22;8251;53.568;10.018;2023-03-23T11:36:32;15.80;80.70
16287;DHT22;8251;53.568;10.018;2023-03-23T11:39:00;15.80;80.30
16287;DHT22;8251;53.568;10.018;2023-03-23T11:41:33;15.90;80.00
16287;DHT22;8251;53.568;10.018;2023-03-23T11:44:08;16.00;79.50
16287;DHT22;8251;53.568;10.018;2023-03-23T11:46:44;16.00;80.10
16287;DHT22;8251;53.568;10.018;2023-03-23T11:49:22;16.00;80.50
16287;DHT22;8251;53.568;10.018;2023-03-23T11:52:00;15.80;81.10
16287;DHT22;8251;53.568;10.018;2023-03-23T11:54:31;15.90;81.40
16287;DHT22;8251;53.568;10.018;2023-03-23T11:57:00;16.00;81.20
16287;DHT22;8251;53.568;10.018;2023-03-23T11:59:28;16.00;81.30
16287;DHT22;8251;53.568;10.018;2023-03-23T12:02:04;15.90;80.80
16287;DHT22;8251;53.568;10.018;2023-03-23T12:04:54;15.70;80.90
16287;DHT22;8251;53.568;10.018;2023-03-23T12:07:50;15.60;81.00
16287;DHT22;8251;53.568;10.018;2023-03-23T12:10:26;15.60;80.40
16287;DHT22;8251;53.568;10.018;2023-03-23T12:13:09;15.50;81.40
16287;DHT22;8251;53.568;10.018;2023-03-23T12:15:45;15.30;81.10
16287;DHT22;8251;53.568;10.018;2023-03-23T12:18:19;15.20;82.60
16287;DHT22;8251;53.568;10.018;2023-03-23T12:21:03;15.20;84.30
16287;DHT22;8251;53.568;10.018;2023-03-23T12:23:38;15.30;85.90
16287;DHT22;8251;53.568;10.018;2023-03-23T12:26:14;15.10;85.40
16287;DHT22;8251;53.568;10.018;2023-03-23T12:28:52;15.10;85.40
16287;DHT22;8251;53.568;10.018;2023-03-23T12:31:25;15.00;85.50
16287;DHT22;8251;53.568;10.018;2023-03-23T12:34:05;14.90;85.70
16287;DHT22;8251;53.568;10.018;2023-03-23T12:36:46;14.90;86.20
16287;DHT22;8251;53.568;10.018;2023-03-23T12:42:16;15.00;86.20
16287;DHT22;8251;53.568;10.018;2023-03-23T12:44:50;14.90;86.20
16287;DHT22;8251;53.568;10.018;2023-03-23T12:47:28;15.00;86.50
16287;DHT22;8251;53.568;10.018;2023-03-23T12:49:58;15.20;86.20
16287;DHT22;8251;53.568;10.018;2023-03-23T12:52:33;15.20;86.30
16287;DHT22;8251;53.568;10.018;2023-03-23T12:55:14;15.30;86.50
16287;DHT22;8251;53.568;10.018;2023-03-23T12:57:48;15.40;86.40
16287;DHT22;8251;53.568;10.018;2023-03-23T13:00:22;15.50;86.00
16287;DHT22;8251;53.568;10.018;2023-03-23T13:02:56;15.50;85.60
16287;DHT22;8251;53.568;10.018;2023-03-23T13:05:34;15.60;85.80
16287;DHT22;8251;53.568;10.018;2023-03-23T13:08:10;15.80;85.00
16287;DHT22;8251;53.568;10.018;2023-03-23T13:10:42;16.10;84.60
16287;DHT22;8251;53.568;10.018;2023-03-23T13:13:14;16.40;83.50
16287;DHT22;8251;53.568;10.018;2023-03-23T13:15:49;16.60;82.40
16287;DHT22;8251;53.568;10.018;2023-03-23T13:18:29;16.60;80.90
16287;DHT22;8251;53.568;10.018;2023-03-23T13:21:08;16.60;81.80
16287;DHT22;8251;53.568;10.018;2023-03-23T13:23:40;16.60;80.70
16287;DHT22;8251;53.568;10.018;2023-03-23T13:26:09;16.70;80.70
16287;DHT22;8251;53.568;10.018;2023-03-23T13:28:53;16.90;80.40
16287;DHT22;8251;53.568;10.018;2023-03-23T13:31:22;16.90;77.80
16287;DHT22;8251;53.568;10.018;2023-03-23T13:33:59;16.80;76.80
16287;DHT22;8251;53.568;10.018;2023-03-23T13:36:36;16.80;76.70
16287;DHT22;8251;53.568;10.018;2023-03-23T13:39:18;16.70;78.10
16287;DHT22;8251;53.568;10.018;2023-03-23T13:41:47;16.80;78.00
16287;DHT22;8251;53.568;10.018;2023-03-23T13:44:17;16.80;77.40
16287;DHT22;8251;53.568;10.018;2023-03-23T13:47:04;16.80;77.40
16287;DHT22;8251;53.568;10.018;2023-03-23T13:49:45;16.70;77.00
16287;DHT22;8251;53.568;10.018;2023-03-23T13:52:17;16.60;77.90
16287;DHT22;8251;53.568;10.018;2023-03-23T13:54:49;16.60;77.80
16287;DHT22;8251;53.568;10.018;2023-03-23T13:57:35;16.60;77.10
16287;DHT22;8251;53.568;10.018;2023-03-23T14:00:25;16.50;76.70
16287;DHT22;8251;53.568;10.018;2023-03-23T14:03:00;16.40;77.60
16287;DHT22;8251;53.568;10.018;2023-03-23T14:05:32;16.10;77.30
16287;DHT22;8251;53.568;10.018;2023-03-23T14:08:10;16.10;78.60
16287;DHT22;8251;53.568;10.018;2023-03-23T14:10:42;16.00;75.80
16287;DHT22;8251;53.568;10.018;2023-03-23T14:13:18;15.80;77.20
16287;DHT22;8251;53.568;10.018;2023-03-23T14:15:58;15.60;78.40
16287;DHT22;8251;53.568;10.018;2023-03-23T14:18:32;15.40;80.80
16287;DHT22;8251;53.568;10.018;2023-03-23T14:21:01;15.10;82.30
16287;DHT22;8251;53.568;10.018;2023-03-23T14:23:31;14.70;84.10
16287;DHT22;8251;53.568;10.018;2023-03-23T14:26:02;14.40;85.30
16287;DHT22;8251;53.568;10.018;2023-03-23T14:28:36;14.40;85.40
16287;DHT22;8251;53.568;10.018;2023-03-23T14:31:08;14.30;86.00
16287;DHT22;8251;53.568;10.018;2023-03-23T14:33:38;14.20;86.10
16287;DHT22;8251;53.568;10.018;2023-03-23T14:36:09;14.20;86.90
16287;DHT22;8251;53.568;10.018;2023-03-23T14:38:36;14.30;87.10
16287;DHT22;8251;53.568;10.018;2023-03-23T14:41:06;14.50;86.10
16287;DHT22;8251;53.568;10.018;2023-03-23T14:43:35;14.50;84.80
16287;DHT22;8251;53.568;10.018;2023-03-23T14:46:06;14.40;84.50
16287;DHT22;8251;53.568;10.018;2023-03-23T14:48:37;14.50;85.20
16287;DHT22;8251;53.568;10.018;2023-03-23T14:51:05;14.40;84.00
16287;DHT22;8251;53.568;10.018;2023-03-23T14:53:36;14.40;84.00
16287;DHT22;8251;53.568;10.018;2023-03-23T14:56:10;14.40;83.10
16287;DHT22;8251;53.568;10.018;2023-03-23T14:58:43;14.50;83.10
16287;DHT22;8251;53.568;10.018;2023-03-23T15:01:19;14.40;83.20
16287;DHT22;8251;53.568;10.018;2023-03-23T15:04:02;14.40;83.40
16287;DHT22;8251;53.568;10.018;2023-03-23T15:06:33;14.50;84.10
16287;DHT22;8251;53.568;10.018;2023-03-23T15:09:07;14.40;82.40
16287;DHT22;8251;53.568;10.018;2023-03-23T15:11:39;14.40;82.60
16287;DHT22;8251;53.568;10.018;2023-03-23T15:14:10;14.40;83.10
16287;DHT22;8251;53.568;10.018;2023-03-23T15:16:40;14.40;83.10
16287;DHT22;8251;53.568;10.018;2023-03-23T15:19:16;14.40;82.60
16287;DHT22;8251;53.568;10.018;2023-03-23T15:21:48;14.40;83.20
16287;DHT22;8251;53.568;10.018;2023-03-23T15:24:25;14.50;83.50
16287;DHT22;8251;53.568;10.018;2023-03-23T15:27:03;14.50;83.10
16287;DHT22;8251;53.568;10.018;2023-03-23T15:29:46;14.60;83.60
16287;DHT22;8251;53.568;10.018;2023-03-23T15:32:21;14.70;83.80
16287;DHT22;8251;53.568;10.018;2023-03-23T15:34:48;14.70;83.70
16287;DHT22;8251;53.568;10.018;2023-03-23T15:37:21;14.80;84.70
16287;DHT22;8251;53.568;10.018;2023-03-23T15:39:49;14.80;83.90
16287;DHT22;8251;53.568;10.018;2023-03-23T15:42:29;15.00;84.10
16287;DHT22;8251;53.568;10.018;2023-03-23T15:45:27;15.00;83.70
16287;DHT22;8251;53.568;10.018;2023-03-23T15:48:09;15.20;83.40
16287;DHT22;8251;53.568;10.018;2023-03-23T15:50:36;15.30;82.80
16287;DHT22;8251;53.568;10.018;2023-03-23T15:53:19;15.30;81.30
16287;DHT22;8251;53.568;10.018;2023-03-23T15:55:49;15.30;81.10
16287;DHT22;8251;53.568;10.018;2023-03-23T15:58:18;15.20;81.70
16287;DHT22;8251;53.568;10.018;2023-03-23T16:00:45;15.00;81.50
16287;DHT22;8251;53.568;10.018;2023-03-23T16:03:17;15.00;81.50
16287;DHT22;8251;53.568;10.018;2023-03-23T16:05:46;14.90;81.10